createdAt,value
2019-03-25T00:00:00.625Z,91
2019-03-25T00:05:29.085Z,92
2019-03-25T00:10:56.695Z,91
2019-03-25T00:16:25.103Z,90
2019-03-25T00:21:53.597Z,90
2019-03-25T00:27:21.116Z,89
2019-03-25T00:38:18.058Z,88
2019-03-25T00:43:46.619Z,89
2019-03-25T00:49:15.020Z,89
2019-03-25T00:54:49.766Z,90
2019-03-25T01:00:10.910Z,89
2019-03-25T01:05:39.370Z,89
2019-03-25T01:11:06.877Z,88
2019-03-25T01:16:34.336Z,88
2019-03-25T01:22:02.773Z,88
2019-03-25T01:27:31.169Z,89
2019-03-25T01:32:58.634Z,89
2019-03-25T01:38:27.087Z,89
2019-03-25T04:11:27.632Z,88
2019-03-25T04:17:00.606Z,88
2019-03-25T04:22:23.139Z,88
2019-03-25T04:27:51.515Z,88
2019-03-25T04:33:19.881Z,89
2019-03-25T04:38:47.298Z,89
2019-03-25T04:44:15.689Z,89
2019-03-25T04:49:43.051Z,88
2019-03-25T04:55:11.523Z,89
2019-03-25T05:00:38.829Z,88
2019-03-25T05:06:07.345Z,88
2019-03-25T05:11:35.559Z,89
2019-03-25T05:17:03.021Z,88
2019-03-25T05:22:31.385Z,89
2019-03-25T05:27:58.726Z,89
2019-03-25T05:33:27.086Z,88
2019-03-25T05:38:54.546Z,89
2019-03-25T05:44:22.843Z,89
2019-03-25T05:49:51.216Z,89
2019-03-25T06:00:47.023Z,89
2019-03-25T06:06:15.471Z,89
2019-03-25T06:11:42.843Z,89
2019-03-25T06:17:11.379Z,89
2019-03-25T06:22:38.908Z,89
2019-03-25T06:28:06.118Z,88
2019-03-25T06:39:02.009Z,90
2019-03-25T06:44:30.400Z,90
2019-03-25T06:49:57.747Z,90
2019-03-25T06:55:26.303Z,90
2019-03-25T07:00:54.631Z,90
2019-03-25T07:06:22.031Z,89
2019-03-25T07:11:50.566Z,88
2019-03-25T07:17:18.970Z,88
2019-03-25T07:22:46.418Z,88
2019-03-25T07:28:14.780Z,89
2019-03-25T07:33:42.294Z,89
2019-03-25T07:39:10.724Z,89
2019-03-25T07:44:39.081Z,89
2019-03-25T07:50:07.493Z,89
2019-03-25T07:55:37.078Z,89
2019-03-25T08:01:04.411Z,90
2019-03-25T08:06:33.043Z,89
2019-03-25T08:12:01.742Z,89
2019-03-25T08:17:28.908Z,88
2019-03-25T08:22:56.187Z,87
2019-03-25T08:28:24.711Z,85
2019-03-25T08:33:53.209Z,82
2019-03-25T08:39:20.695Z,81
2019-03-25T08:44:48.182Z,83
2019-03-25T08:50:15.797Z,81
2019-03-25T08:55:44.585Z,79
2019-03-25T09:01:11.773Z,76
2019-03-25T09:06:39.734Z,79
2019-03-25T09:12:07.875Z,77
2019-03-25T09:17:36.552Z,77
2019-03-25T09:23:04.126Z,74
2019-03-25T09:28:31.760Z,73
2019-03-25T09:33:59.193Z,77
2019-03-25T09:39:26.795Z,78
2019-03-25T09:44:54.348Z,79
2019-03-25T09:50:22.991Z,76
2019-03-25T09:55:50.489Z,76
2019-03-25T10:01:18.108Z,74
2019-03-25T10:06:45.978Z,71
2019-03-25T10:12:14.476Z,71
2019-03-25T10:17:42.002Z,75
2019-03-25T10:23:10.716Z,80
2019-03-25T10:28:47.778Z,83
2019-03-25T10:34:08.223Z,86
2019-03-25T10:39:36.153Z,87
2019-03-25T10:45:05.013Z,87
2019-03-25T10:50:33.099Z,86
2019-03-25T10:56:00.663Z,86
2019-03-25T11:01:29.400Z,86
2019-03-25T11:06:57.806Z,83
2019-03-25T11:12:24.487Z,81
2019-03-25T11:17:53.029Z,79
2019-03-25T11:23:21.692Z,79
2019-03-25T11:28:49.345Z,78
2019-03-25T11:34:18.046Z,74
2019-03-25T11:45:13.330Z,71
2019-03-25T11:50:45.555Z,72
2019-03-25T11:56:10.624Z,71
2019-03-25T12:01:38.364Z,71
2019-03-25T12:07:06.021Z,70
2019-03-25T12:12:34.756Z,68
2019-03-25T12:18:03.559Z,67
2019-03-25T12:23:31.182Z,63
2019-03-25T12:28:58.968Z,66
2019-03-25T12:34:26.823Z,63
2019-03-25T12:39:54.493Z,63
2019-03-25T12:45:22.400Z,63
2019-03-25T12:50:49.975Z,64
2019-03-25T12:56:17.795Z,66
2019-03-25T13:01:52.698Z,61
2019-03-25T13:07:14.113Z,64
2019-03-25T13:12:41.933Z,65
2019-03-25T13:18:10.809Z,64
2019-03-25T13:23:38.369Z,62
2019-03-25T13:29:06.200Z,61
2019-03-25T13:34:33.943Z,64
2019-03-25T13:40:06.727Z,63
2019-03-25T13:45:30.602Z,60
2019-03-25T13:50:58.225Z,63
2019-03-25T13:56:26.041Z,61
2019-03-25T14:01:53.912Z,64
2019-03-25T14:07:22.686Z,66
2019-03-25T14:12:51.999Z,66
2019-03-25T14:23:47.998Z,65
2019-03-25T14:29:16.782Z,66
2019-03-25T14:34:45.225Z,65
2019-03-25T14:40:13.864Z,66
2019-03-25T14:45:40.146Z,64
2019-03-25T14:51:07.880Z,66
2019-03-25T14:56:35.689Z,67
2019-03-25T15:07:31.162Z,68
2019-03-25T15:12:58.962Z,68
2019-03-25T15:18:27.737Z,67
2019-03-25T15:23:56.460Z,68
2019-03-25T15:29:24.202Z,69
2019-03-25T15:34:52.955Z,70
2019-03-25T15:40:21.754Z,70
2019-03-25T15:45:51.769Z,69
2019-03-25T15:51:18.151Z,69
2019-03-25T15:56:46.979Z,69
2019-03-25T16:07:42.478Z,69
2019-03-25T16:13:10.420Z,69
2019-03-25T16:18:37.882Z,70
2019-03-25T16:24:06.600Z,69
2019-03-25T16:29:34.392Z,70
2019-03-25T16:35:03.082Z,70
2019-03-25T16:40:30.842Z,71
2019-03-25T16:51:26.117Z,71
2019-03-25T16:56:54.859Z,72
2019-03-25T17:02:22.469Z,72
2019-03-25T17:07:50.356Z,72
2019-03-25T17:13:19.131Z,73
2019-03-25T17:18:47.503Z,73
2019-03-25T17:24:15.116Z,75
2019-03-25T17:29:42.873Z,76
2019-03-25T17:35:10.551Z,77
2019-03-25T17:40:39.028Z,77
2019-03-25T17:46:06.876Z,78
2019-03-25T17:57:02.881Z,79
2019-03-25T18:02:31.754Z,79
2019-03-25T18:07:59.983Z,79
2019-03-25T18:13:27.650Z,80
2019-03-25T18:18:56.194Z,80
2019-03-25T18:24:24.788Z,80
2019-03-25T18:29:53.969Z,80
2019-03-25T18:35:20.886Z,79
2019-03-25T18:40:49.519Z,80
2019-03-25T18:46:17.023Z,79
2019-03-25T18:51:45.696Z,79
2019-03-25T18:57:14.136Z,80
2019-03-25T19:02:41.660Z,80
2019-03-25T19:08:09.230Z,81
2019-03-25T19:13:36.780Z,82
2019-03-25T19:19:05.296Z,83
2019-03-25T19:24:33.949Z,83
2019-03-25T19:30:02.448Z,84
2019-03-25T19:35:30.305Z,84
2019-03-25T19:40:58.428Z,84
2019-03-25T19:46:26.926Z,84
2019-03-25T19:51:54.423Z,84
2019-03-25T19:57:22.910Z,84
2019-03-25T20:02:52.278Z,84
2019-03-25T20:08:18.942Z,84
2019-03-25T20:13:46.533Z,84
2019-03-25T20:19:14.870Z,84
2019-03-25T20:24:43.444Z,85
2019-03-25T20:30:11.831Z,85
2019-03-25T20:35:40.391Z,85
2019-03-25T20:41:07.969Z,84
2019-03-25T20:46:37.778Z,84
2019-03-25T20:52:02.990Z,84
2019-03-25T20:57:30.291Z,84
2019-03-25T21:02:58.632Z,84
2019-03-25T21:08:27.101Z,84
2019-03-25T21:13:54.528Z,84
2019-03-25T21:19:23.016Z,84
2019-03-25T21:24:51.468Z,83
2019-03-25T21:30:18.943Z,83
2019-03-25T21:35:46.378Z,84
2019-03-25T21:41:14.789Z,85
2019-03-25T21:46:42.223Z,85
2019-03-25T21:52:10.649Z,85
2019-03-25T21:57:39.140Z,85
2019-03-25T22:03:11.914Z,86
2019-03-25T22:08:34.950Z,86
2019-03-25T22:14:03.375Z,87
2019-03-25T22:19:31.794Z,87
2019-03-25T22:25:00.412Z,88
2019-03-25T22:30:27.720Z,88
2019-03-25T22:35:56.199Z,87
2019-03-25T22:41:23.755Z,87
2019-03-25T22:46:52.106Z,87
2019-03-25T22:52:20.659Z,86
2019-03-25T22:57:49.048Z,86
2019-03-25T23:03:16.509Z,86
2019-03-25T23:08:44.907Z,86
2019-03-25T23:14:12.429Z,85
2019-03-25T23:19:40.818Z,85
2019-03-25T23:25:09.295Z,85
2019-03-25T23:30:37.713Z,85
2019-03-25T23:36:06.184Z,84
2019-03-25T23:41:33.594Z,84
2019-03-25T23:47:01.386Z,84
2019-03-25T23:52:29.430Z,84
2019-03-25T23:57:56.950Z,84
